createdAt,value
2018-05-15T00:00:00.837Z,4.77
2018-05-15T00:02:29.236Z,4.47
2018-05-15T00:04:57.652Z,4.47
2018-05-15T00:07:26.206Z,4.90
2018-05-15T00:09:54.616Z,4.83
2018-05-15T00:12:23.029Z,4.93
2018-05-15T00:14:51.488Z,4.40
2018-05-15T00:17:19.901Z,4.43
2018-05-15T00:19:48.313Z,4.93
2018-05-15T00:22:16.776Z,4.63
2018-05-15T00:24:45.197Z,4.73
2018-05-15T00:27:13.613Z,4.70
2018-05-15T00:29:42.081Z,4.43
2018-05-15T00:32:10.499Z,4.50
2018-05-15T00:34:38.909Z,4.40
2018-05-15T00:37:07.360Z,4.37
2018-05-15T00:39:35.784Z,4.70
2018-05-15T00:42:04.201Z,4.17
2018-05-15T00:44:32.684Z,4.57
2018-05-15T00:47:01.090Z,5.43
2018-05-15T00:49:29.496Z,4.67
2018-05-15T00:51:57.935Z,4.77
2018-05-15T00:54:26.400Z,4.90
2018-05-15T00:56:54.789Z,4.80
2018-05-15T00:59:23.436Z,5.00
2018-05-15T01:01:51.844Z,4.63
2018-05-15T01:04:20.260Z,4.40
2018-05-15T01:06:48.704Z,4.93
2018-05-15T01:09:17.152Z,4.90
2018-05-15T01:11:45.576Z,4.77
2018-05-15T01:14:14.027Z,5.17
2018-05-15T01:16:42.442Z,4.60
2018-05-15T01:19:10.869Z,5.17
2018-05-15T01:21:39.333Z,4.80
2018-05-15T01:24:07.763Z,5.10
2018-05-15T01:26:36.169Z,4.23
2018-05-15T01:29:04.621Z,4.87
2018-05-15T01:31:33.028Z,4.57
2018-05-15T01:34:01.451Z,4.67
2018-05-15T01:36:29.923Z,4.40
2018-05-15T01:38:58.325Z,4.63
2018-05-15T01:41:26.734Z,4.43
2018-05-15T01:43:55.193Z,4.40
2018-05-15T01:46:23.600Z,4.73
2018-05-15T01:48:52.012Z,4.93
2018-05-15T01:51:20.500Z,4.10
2018-05-15T01:53:48.932Z,4.50
2018-05-15T01:56:17.340Z,4.73
2018-05-15T01:58:45.790Z,4.70
2018-05-15T02:01:14.195Z,4.27
2018-05-15T02:03:42.600Z,4.57
2018-05-15T02:06:11.053Z,4.60
2018-05-15T02:08:39.483Z,5.17
2018-05-15T02:11:07.899Z,4.60
2018-05-15T02:13:36.360Z,4.60
2018-05-15T02:16:04.769Z,4.60
2018-05-15T02:18:33.186Z,5.27
2018-05-15T02:21:01.629Z,4.60
2018-05-15T02:23:30.060Z,4.90
2018-05-15T02:25:58.468Z,5.00
2018-05-15T02:28:26.972Z,4.67
2018-05-15T02:30:55.380Z,5.17
2018-05-15T02:33:23.788Z,5.20
2018-05-15T02:35:52.238Z,5.00
2018-05-15T02:38:20.724Z,4.90
2018-05-15T02:40:49.148Z,5.77
2018-05-15T02:43:17.596Z,5.23
2018-05-15T02:45:46.035Z,5.40
2018-05-15T02:48:14.458Z,5.63
2018-05-15T02:50:42.918Z,5.53
2018-05-15T02:53:11.340Z,4.90
2018-05-15T02:55:39.742Z,5.17
2018-05-15T02:58:08.195Z,4.70
2018-05-15T03:00:36.633Z,5.00
2018-05-15T03:03:05.054Z,5.20
2018-05-15T03:05:33.504Z,5.50
2018-05-15T03:08:01.917Z,5.90
2018-05-15T03:10:30.320Z,6.03
2018-05-15T03:12:58.782Z,5.13
2018-05-15T03:15:27.194Z,5.10
2018-05-15T03:17:55.612Z,5.73
2018-05-15T03:20:24.067Z,6.20
2018-05-15T03:22:52.501Z,5.73
2018-05-15T03:25:20.915Z,6.00
2018-05-15T03:27:49.365Z,6.43
2018-05-15T03:30:17.783Z,6.07
2018-05-15T03:32:46.203Z,6.43
2018-05-15T03:35:14.649Z,6.27
2018-05-15T03:37:43.060Z,6.00
2018-05-15T03:40:11.485Z,6.20
2018-05-15T03:42:39.969Z,6.43
2018-05-15T03:45:08.385Z,6.00
2018-05-15T03:47:36.801Z,6.03
2018-05-15T03:50:05.260Z,6.17
2018-05-15T03:52:33.684Z,6.30
2018-05-15T03:55:02.113Z,5.73
2018-05-15T03:57:30.559Z,6.67
2018-05-15T03:59:58.967Z,6.20
2018-05-15T04:05:46.068Z,5.47
2018-05-15T04:08:14.580Z,6.27
2018-05-15T04:10:42.999Z,6.30
2018-05-15T04:13:11.412Z,6.77
2018-05-15T04:15:39.902Z,6.57
2018-05-15T04:18:08.304Z,6.40
2018-05-15T04:20:36.709Z,6.43
2018-05-15T04:23:05.188Z,6.10
2018-05-15T04:25:33.584Z,6.90
2018-05-15T04:28:02.082Z,7.13
2018-05-15T04:30:30.826Z,6.30
2018-05-15T04:32:59.242Z,7.17
2018-05-15T04:35:27.650Z,6.53
2018-05-15T04:37:56.126Z,6.97
2018-05-15T04:40:24.544Z,7.60
2018-05-15T04:42:52.955Z,7.13
2018-05-15T04:45:21.432Z,7.33
2018-05-15T04:47:49.850Z,7.43
2018-05-15T04:50:18.279Z,7.87
2018-05-15T04:52:46.819Z,7.33
2018-05-15T04:55:15.253Z,8.27
2018-05-15T04:57:43.668Z,7.17
2018-05-15T05:00:12.139Z,8.20
2018-05-15T05:02:40.576Z,8.40
2018-05-15T05:05:09.049Z,8.57
2018-05-15T05:07:37.530Z,8.13
2018-05-15T05:10:05.963Z,8.20
2018-05-15T05:12:34.404Z,8.57
2018-05-15T05:15:02.864Z,8.60
2018-05-15T05:17:31.284Z,9.20
2018-05-15T05:19:59.716Z,8.50
2018-05-15T05:22:28.189Z,10.13
2018-05-15T05:24:56.618Z,7.73
2018-05-15T05:27:25.036Z,8.33
2018-05-15T05:29:53.514Z,8.50
2018-05-15T05:32:21.946Z,9.00
2018-05-15T05:34:50.376Z,8.93
2018-05-15T05:37:18.836Z,8.73
2018-05-15T05:39:47.305Z,8.97
2018-05-15T05:42:15.796Z,9.47
2018-05-15T05:44:44.265Z,8.33
2018-05-15T05:47:12.719Z,8.77
2018-05-15T05:49:41.149Z,8.87
2018-05-15T05:52:09.621Z,8.17
2018-05-15T05:54:38.055Z,8.47
2018-05-15T05:57:06.478Z,8.37
2018-05-15T05:59:34.941Z,8.53
2018-05-15T06:02:03.373Z,8.03
2018-05-15T06:04:31.788Z,7.97
2018-05-15T06:07:00.245Z,8.20
2018-05-15T06:09:28.664Z,8.70
2018-05-15T06:11:57.092Z,8.37
2018-05-15T06:14:25.568Z,8.70
2018-05-15T06:16:54.009Z,7.93
2018-05-15T06:19:22.437Z,7.80
2018-05-15T06:21:50.890Z,7.57
2018-05-15T06:24:19.318Z,8.03
2018-05-15T06:26:47.765Z,7.17
2018-05-15T06:29:16.246Z,7.47
2018-05-15T06:31:44.676Z,6.53
2018-05-15T06:34:13.105Z,7.37
2018-05-15T06:36:41.597Z,8.00
2018-05-15T06:39:10.033Z,7.63
2018-05-15T06:41:38.459Z,7.33
2018-05-15T06:44:06.950Z,6.53
2018-05-15T06:46:35.374Z,7.20
2018-05-15T06:49:03.793Z,6.90
2018-05-15T06:51:32.291Z,6.57
2018-05-15T06:54:00.707Z,6.80
2018-05-15T06:56:29.123Z,6.87
2018-05-15T06:58:57.589Z,6.97
2018-05-15T07:01:26.004Z,7.90
2018-05-15T07:03:54.437Z,7.77
2018-05-15T07:06:22.921Z,6.90
2018-05-15T07:08:51.380Z,7.70
2018-05-15T07:11:19.813Z,7.30
2018-05-15T07:13:48.284Z,7.57
2018-05-15T07:16:16.735Z,7.47
2018-05-15T07:18:45.181Z,6.87
2018-05-15T07:21:13.652Z,6.93
2018-05-15T07:23:42.072Z,7.33
2018-05-15T07:26:10.500Z,5.97
2018-05-15T07:28:38.957Z,6.60
2018-05-15T07:31:07.380Z,7.10
2018-05-15T07:33:35.805Z,7.13
2018-05-15T07:36:04.284Z,6.80
2018-05-15T07:38:32.708Z,7.27
2018-05-15T07:41:01.137Z,6.70
2018-05-15T07:43:29.621Z,6.80
2018-05-15T07:45:58.049Z,7.27
2018-05-15T07:48:26.490Z,7.20
2018-05-15T07:50:54.987Z,7.27
2018-05-15T07:53:23.420Z,7.27
2018-05-15T07:55:52.306Z,7.33
2018-05-15T07:58:20.775Z,6.80
2018-05-15T08:00:49.199Z,7.87
2018-05-15T08:03:17.653Z,6.73
2018-05-15T08:05:46.147Z,6.83
2018-05-15T08:08:14.584Z,7.37
2018-05-15T08:10:43.008Z,7.23
2018-05-15T08:13:11.497Z,7.60
2018-05-15T08:15:39.928Z,7.70
2018-05-15T08:18:08.360Z,7.83
2018-05-15T08:20:36.837Z,7.40
2018-05-15T08:23:05.259Z,7.63
2018-05-15T08:25:33.699Z,7.70
2018-05-15T08:28:02.156Z,7.50
2018-05-15T08:30:30.581Z,7.20
2018-05-15T08:32:58.995Z,7.33
2018-05-15T08:35:27.487Z,7.87
2018-05-15T08:37:55.931Z,7.77
2018-05-15T08:40:24.345Z,6.63
2018-05-15T08:42:52.808Z,6.40
2018-05-15T08:45:21.251Z,7.13
2018-05-15T08:47:49.678Z,6.87
2018-05-15T08:50:18.155Z,6.50
2018-05-15T08:52:46.590Z,6.53
2018-05-15T08:55:15.032Z,6.60
2018-05-15T08:57:43.516Z,6.37
2018-05-15T09:00:11.941Z,6.80
2018-05-15T09:02:40.401Z,5.90
2018-05-15T09:05:08.884Z,7.60
2018-05-15T09:07:37.315Z,6.70
2018-05-15T09:10:05.747Z,7.77
2018-05-15T09:12:34.218Z,6.67
2018-05-15T09:15:02.647Z,7.00
2018-05-15T09:17:31.077Z,7.03
2018-05-15T09:19:59.570Z,7.17
2018-05-15T09:22:28.009Z,7.23
2018-05-15T09:24:56.492Z,6.90
2018-05-15T09:27:24.933Z,6.60
2018-05-15T09:29:53.376Z,6.87
2018-05-15T09:32:21.806Z,6.50
2018-05-15T09:34:50.275Z,6.20
2018-05-15T09:37:18.696Z,5.77
2018-05-15T09:39:47.126Z,6.07
2018-05-15T09:42:15.610Z,5.27
2018-05-15T09:44:44.874Z,5.50
2018-05-15T09:47:13.308Z,5.78
2018-05-15T09:49:41.782Z,5.80
2018-05-15T09:52:10.211Z,5.17
2018-05-15T09:54:38.639Z,5.63
2018-05-15T09:57:07.120Z,5.85
2018-05-15T09:59:35.540Z,5.43
2018-05-15T10:02:03.979Z,5.37
2018-05-15T10:04:32.444Z,5.17
2018-05-15T10:07:00.871Z,5.20
2018-05-15T10:09:29.295Z,5.30
2018-05-15T10:11:57.820Z,4.50
2018-05-15T10:14:26.245Z,4.60
2018-05-15T10:16:54.673Z,4.57
2018-05-15T10:19:23.140Z,4.50
2018-05-15T10:21:51.568Z,4.20
2018-05-15T10:24:20.013Z,4.00
2018-05-15T10:26:48.462Z,4.75
2018-05-15T10:29:16.908Z,4.37
2018-05-15T10:31:45.335Z,3.90
2018-05-15T10:34:13.785Z,4.22
2018-05-15T10:36:42.203Z,4.03
2018-05-15T10:39:10.620Z,3.87
2018-05-15T10:41:39.090Z,3.62
2018-05-15T10:44:07.503Z,3.78
2018-05-15T10:46:35.922Z,3.83
2018-05-15T10:49:04.379Z,3.90
2018-05-15T10:51:32.788Z,3.40
2018-05-15T10:54:01.205Z,4.05
2018-05-15T10:56:29.678Z,3.50
2018-05-15T10:58:58.109Z,3.97
2018-05-15T11:01:26.553Z,3.35
2018-05-15T11:03:55.132Z,3.37
2018-05-15T11:06:23.549Z,3.60
2018-05-15T11:08:51.965Z,3.70
2018-05-15T11:11:21.197Z,3.35
2018-05-15T11:13:49.616Z,3.65
2018-05-15T11:16:18.045Z,3.90
2018-05-15T11:18:46.574Z,3.75
2018-05-15T11:21:26.764Z,3.55
2018-05-15T11:26:59.100Z,3.70
2018-05-15T11:29:27.560Z,3.30
2018-05-15T11:31:56.005Z,3.50
2018-05-15T11:34:24.458Z,3.97
2018-05-15T11:36:53.006Z,3.60
2018-05-15T11:39:21.576Z,3.43
2018-05-15T11:41:50.011Z,3.60
2018-05-15T11:44:18.477Z,3.80
2018-05-15T11:46:46.925Z,3.58
2018-05-15T11:49:15.853Z,3.30
2018-05-15T11:51:44.654Z,3.55
2018-05-15T11:54:12.276Z,3.80
2018-05-15T11:56:40.696Z,3.40
2018-05-15T11:59:09.222Z,2.85
2018-05-15T12:01:37.638Z,3.42
2018-05-15T12:04:06.069Z,3.10
2018-05-15T12:06:34.560Z,3.60
2018-05-15T12:09:03.031Z,3.30
2018-05-15T12:11:31.464Z,3.45
2018-05-15T12:13:59.912Z,3.40
2018-05-15T12:16:28.330Z,3.40
2018-05-15T12:18:56.873Z,3.22
2018-05-15T12:21:25.457Z,3.33
2018-05-15T12:23:53.901Z,3.10
2018-05-15T12:26:22.326Z,3.10
2018-05-15T12:28:50.785Z,2.80
2018-05-15T12:31:19.213Z,3.25
2018-05-15T12:33:47.624Z,3.40
2018-05-15T12:36:16.103Z,3.28
2018-05-15T12:38:44.524Z,3.05
2018-05-15T12:41:12.967Z,3.20
2018-05-15T12:43:41.441Z,3.03
2018-05-15T12:46:09.875Z,3.17
2018-05-15T12:48:38.346Z,3.35
2018-05-15T12:51:06.963Z,3.28
2018-05-15T12:53:35.387Z,3.10
2018-05-15T12:56:03.813Z,3.10
2018-05-15T12:58:32.293Z,3.28
2018-05-15T13:01:00.706Z,3.08
2018-05-15T13:03:29.138Z,3.20
2018-05-15T13:05:57.620Z,3.00
2018-05-15T13:08:26.049Z,3.28
2018-05-15T13:10:55.083Z,3.53
2018-05-15T13:13:23.561Z,3.30
2018-05-15T13:15:51.990Z,3.55
2018-05-15T13:18:20.449Z,3.65
2018-05-15T13:20:48.936Z,3.30
2018-05-15T13:23:17.360Z,3.40
2018-05-15T13:25:45.776Z,3.50
2018-05-15T13:28:14.223Z,3.08
2018-05-15T13:30:42.658Z,3.10
2018-05-15T13:33:11.084Z,3.47
2018-05-15T13:35:39.544Z,3.25
2018-05-15T13:38:07.959Z,3.08
2018-05-15T13:40:36.369Z,3.42
2018-05-15T13:43:04.841Z,3.00
2018-05-15T13:45:33.272Z,2.87
2018-05-15T13:48:01.696Z,3.20
2018-05-15T13:50:30.187Z,2.92
2018-05-15T13:52:58.641Z,3.00
2018-05-15T13:58:01.789Z,3.55
2018-05-15T14:00:30.220Z,3.40
2018-05-15T14:02:58.633Z,3.33
2018-05-15T14:05:27.096Z,2.95
2018-05-15T14:07:56.244Z,3.50
2018-05-15T14:10:25.173Z,3.30
2018-05-15T14:12:53.683Z,2.90
2018-05-15T14:15:22.103Z,2.97
2018-05-15T14:17:50.520Z,2.72
2018-05-15T14:20:18.988Z,3.05
2018-05-15T14:22:47.401Z,2.92
2018-05-15T14:25:15.822Z,3.37
2018-05-15T14:27:44.319Z,3.12
2018-05-15T14:30:12.745Z,2.90
2018-05-15T14:32:41.160Z,3.30
2018-05-15T14:35:09.648Z,2.92
2018-05-15T14:37:38.062Z,2.87
2018-05-15T14:40:06.485Z,3.60
2018-05-15T14:42:46.625Z,2.87
2018-05-15T14:45:16.815Z,3.10
2018-05-15T14:47:45.255Z,2.85
2018-05-15T14:50:13.709Z,3.10
2018-05-15T14:52:42.121Z,3.00
2018-05-15T14:55:10.545Z,2.95
2018-05-15T14:57:39.029Z,3.53
2018-05-15T15:00:07.462Z,3.25
2018-05-15T15:02:35.883Z,2.97
2018-05-15T15:05:04.396Z,3.40
2018-05-15T15:07:32.809Z,3.25
2018-05-15T15:10:01.213Z,3.17
2018-05-15T15:12:29.669Z,3.28
2018-05-15T15:14:58.084Z,3.20
2018-05-15T15:17:26.600Z,3.28
2018-05-15T15:19:55.027Z,2.92
2018-05-15T15:22:23.449Z,3.30
2018-05-15T15:24:51.866Z,3.60
2018-05-15T15:27:20.337Z,3.70
2018-05-15T15:29:48.772Z,3.60
2018-05-15T15:32:17.192Z,3.37
2018-05-15T15:34:45.688Z,3.42
2018-05-15T15:37:14.123Z,3.17
2018-05-15T15:39:42.545Z,3.30
2018-05-15T15:42:10.988Z,3.58
2018-05-15T15:44:39.426Z,2.90
2018-05-15T15:47:07.846Z,3.40
2018-05-15T15:49:36.327Z,3.58
2018-05-15T15:52:04.751Z,3.13
2018-05-15T15:54:33.184Z,3.63
2018-05-15T15:57:01.644Z,3.13
2018-05-15T15:59:30.060Z,3.10
2018-05-15T16:01:58.510Z,3.20
2018-05-15T16:04:27.244Z,3.33
2018-05-15T16:06:55.935Z,3.50
2018-05-15T16:09:24.359Z,3.37
2018-05-15T16:11:52.833Z,3.33
2018-05-15T16:14:21.265Z,3.53
2018-05-15T16:16:49.686Z,2.93
2018-05-15T16:19:18.148Z,3.60
2018-05-15T16:21:46.565Z,3.50
2018-05-15T16:24:14.991Z,3.10
2018-05-15T16:26:43.460Z,2.93
2018-05-15T16:29:11.885Z,3.10
2018-05-15T16:31:40.305Z,2.90
2018-05-15T16:34:08.781Z,2.63
2018-05-15T16:36:37.196Z,2.43
2018-05-15T16:39:06.456Z,2.23
2018-05-15T16:41:35.007Z,2.37
2018-05-15T16:44:03.457Z,2.20
2018-05-15T16:46:31.878Z,2.00
2018-05-15T16:49:00.368Z,2.00
2018-05-15T16:51:28.785Z,2.30
2018-05-15T16:53:57.208Z,2.20
2018-05-15T16:56:25.652Z,2.07
2018-05-15T16:58:54.140Z,2.13
2018-05-15T17:01:22.522Z,2.20
2018-05-15T17:03:51.000Z,2.67
2018-05-15T17:06:19.404Z,3.10
2018-05-15T17:08:47.837Z,2.70
2018-05-15T17:11:16.313Z,2.80
2018-05-15T17:13:44.861Z,3.00
2018-05-15T17:16:13.182Z,2.90
2018-05-15T17:18:41.658Z,2.90
2018-05-15T17:21:10.074Z,3.13
2018-05-15T17:23:38.502Z,2.73
2018-05-15T17:26:06.977Z,3.47
2018-05-15T17:28:35.387Z,2.93
2018-05-15T17:31:03.900Z,3.30
2018-05-15T17:33:32.316Z,3.63
2018-05-15T17:36:00.735Z,3.33
2018-05-15T17:38:29.152Z,3.13
2018-05-15T17:40:57.733Z,3.63
2018-05-15T17:43:26.070Z,3.60
2018-05-15T17:45:54.488Z,3.60
2018-05-15T17:48:22.956Z,3.23
2018-05-15T17:50:51.403Z,3.20
2018-05-15T17:53:19.820Z,3.13
2018-05-15T17:55:48.282Z,2.80
2018-05-15T17:58:16.710Z,3.00
2018-05-15T18:00:45.165Z,2.87
2018-05-15T18:03:13.612Z,2.80
2018-05-15T18:05:42.021Z,2.80
2018-05-15T18:08:10.432Z,3.00
2018-05-15T18:10:38.896Z,2.80
2018-05-15T18:13:07.317Z,2.60
2018-05-15T18:15:35.743Z,2.80
2018-05-15T18:18:04.240Z,2.90
2018-05-15T18:20:32.652Z,2.80
2018-05-15T18:23:01.073Z,3.10
2018-05-15T18:25:29.556Z,3.23
2018-05-15T18:27:57.973Z,2.80
2018-05-15T18:30:26.411Z,3.43
2018-05-15T18:32:54.936Z,3.57
2018-05-15T18:35:23.329Z,3.87
2018-05-15T18:37:51.742Z,3.63
2018-05-15T18:40:20.196Z,3.50
2018-05-15T18:42:48.606Z,3.30
2018-05-15T18:45:17.068Z,3.47
2018-05-15T18:47:45.509Z,3.70
2018-05-15T18:50:13.917Z,3.60
2018-05-15T18:52:42.349Z,3.67
2018-05-15T18:55:10.807Z,3.50
2018-05-15T18:57:39.218Z,3.67
2018-05-15T19:00:07.654Z,3.57
2018-05-15T19:02:36.102Z,4.13
2018-05-15T19:05:04.529Z,4.17
2018-05-15T19:07:32.940Z,4.10
2018-05-15T19:10:01.397Z,4.20
2018-05-15T19:12:29.818Z,4.00
2018-05-15T19:14:58.240Z,4.47
2018-05-15T19:17:26.727Z,4.00
2018-05-15T19:19:55.143Z,4.07
2018-05-15T19:22:23.551Z,3.63
2018-05-15T19:24:52.005Z,4.03
2018-05-15T19:27:20.483Z,4.33
2018-05-15T19:29:48.893Z,4.00
2018-05-15T19:32:17.393Z,4.30
2018-05-15T19:34:51.255Z,4.50
2018-05-15T19:37:19.720Z,4.57
2018-05-15T19:39:48.148Z,4.53
2018-05-15T19:42:16.595Z,4.67
2018-05-15T19:44:45.044Z,3.97
2018-05-15T19:47:13.459Z,4.73
2018-05-15T19:49:41.872Z,4.20
2018-05-15T19:52:10.320Z,4.73
2018-05-15T19:54:38.732Z,4.60
2018-05-15T19:57:07.151Z,3.97
2018-05-15T19:59:35.608Z,4.00
2018-05-15T20:02:04.029Z,4.27
2018-05-15T20:04:32.442Z,4.37
2018-05-15T20:07:00.914Z,3.87
2018-05-15T20:09:29.329Z,4.27
2018-05-15T20:11:57.740Z,4.30
2018-05-15T20:14:26.194Z,4.60
2018-05-15T20:16:54.611Z,4.47
2018-05-15T20:19:23.033Z,4.53
2018-05-15T20:21:51.489Z,4.83
2018-05-15T20:24:19.923Z,4.67
2018-05-15T20:26:48.339Z,4.80
2018-05-15T20:29:16.819Z,5.43
2018-05-15T20:31:45.225Z,5.20
2018-05-15T20:34:13.640Z,5.30
2018-05-15T20:36:42.110Z,5.10
2018-05-15T20:39:10.525Z,4.80
2018-05-15T20:41:38.949Z,4.60
2018-05-15T20:44:07.415Z,5.50
2018-05-15T20:46:35.858Z,5.00
2018-05-15T20:49:04.277Z,5.40
2018-05-15T20:51:32.729Z,5.53
2018-05-15T20:54:01.147Z,5.70
2018-05-15T20:56:29.554Z,5.17
2018-05-15T20:58:58.031Z,5.67
2018-05-15T21:01:26.440Z,4.90
2018-05-15T21:03:54.844Z,4.43
2018-05-15T21:06:23.284Z,4.50
2018-05-15T21:08:51.701Z,5.80
2018-05-15T21:11:20.116Z,5.17
2018-05-15T21:13:48.564Z,4.83
2018-05-15T21:16:16.979Z,5.10
2018-05-15T21:18:45.397Z,5.70
2018-05-15T21:21:13.856Z,5.50
2018-05-15T21:23:42.284Z,5.13
2018-05-15T21:26:10.723Z,4.90
2018-05-15T21:28:39.190Z,5.60
2018-05-15T21:31:07.609Z,5.50
2018-05-15T21:33:36.017Z,5.17
2018-05-15T21:36:04.488Z,5.27
2018-05-15T21:38:32.898Z,5.30
2018-05-15T21:41:01.313Z,5.20
2018-05-15T21:43:29.756Z,6.77
2018-05-15T21:45:58.523Z,5.40
2018-05-15T21:48:26.926Z,6.00
2018-05-15T21:50:55.372Z,5.27
2018-05-15T21:53:23.785Z,5.83
2018-05-15T21:55:52.192Z,5.93
2018-05-15T21:58:20.785Z,6.33
2018-05-15T22:00:49.200Z,6.80
2018-05-15T22:03:17.614Z,6.07
2018-05-15T22:05:46.080Z,6.60
2018-05-15T22:08:14.491Z,6.27
2018-05-15T22:10:42.906Z,6.03
2018-05-15T22:13:23.082Z,7.93
2018-05-15T22:16:03.211Z,8.73
2018-05-15T22:18:43.473Z,8.33
2018-05-15T22:21:23.490Z,8.13
2018-05-15T22:23:51.406Z,8.30
2018-05-15T22:26:19.816Z,9.47
2018-05-15T22:28:48.236Z,9.60
2018-05-15T22:31:16.687Z,10.23
2018-05-15T22:33:45.096Z,8.50
2018-05-15T22:36:13.520Z,9.27
2018-05-15T22:38:41.997Z,11.23
2018-05-15T22:41:10.428Z,8.80
2018-05-15T22:43:38.845Z,7.73
2018-05-15T22:46:07.328Z,9.07
2018-05-15T22:48:35.754Z,8.90
2018-05-15T22:51:04.163Z,8.10
2018-05-15T22:53:32.624Z,8.60
2018-05-15T22:56:01.052Z,9.03
2018-05-15T22:58:29.468Z,9.70
2018-05-15T23:00:57.918Z,9.23
2018-05-15T23:03:26.330Z,9.57
2018-05-15T23:05:54.750Z,9.50
2018-05-15T23:08:23.200Z,8.50
2018-05-15T23:10:51.613Z,9.37
2018-05-15T23:13:20.037Z,10.50
2018-05-15T23:15:48.543Z,8.97
2018-05-15T23:18:16.960Z,10.07
2018-05-15T23:20:45.385Z,9.17
2018-05-15T23:23:13.854Z,9.47
2018-05-15T23:25:42.260Z,9.37
2018-05-15T23:28:10.703Z,10.13
2018-05-15T23:30:39.186Z,9.50
2018-05-15T23:33:07.595Z,8.57
2018-05-15T23:35:36.017Z,10.03
2018-05-15T23:38:04.516Z,9.17
2018-05-15T23:40:32.932Z,10.03
2018-05-15T23:43:01.383Z,9.57
2018-05-15T23:45:29.842Z,10.10
2018-05-15T23:47:58.251Z,9.90
2018-05-15T23:50:26.665Z,9.20
2018-05-15T23:52:55.128Z,8.87
2018-05-15T23:55:23.544Z,9.33
2018-05-15T23:57:51.998Z,9.53
